Time;durP1;ratioP1;P1;durP2;ratioP2;P2;SDS_P1;SDS_P2;PMS_P1;PMS_P2;Temp;Humidity;BMP_temperature;BMP_pressure;BME280_temperature;BME280_humidity;BME280_pressure;Samples;Min_cycle;Max_cycle;Signal;HPM_P1;HPM_P2
2023/06/30 00:02:20;;;;;;;11.30;5.27;;;;;;;;;;4981255;28;20191;-73
2023/06/30 00:04:47;;;;;;;5.53;4.90;;;;;;;;;;4985133;28;20199;-73
2023/06/30 00:07:12;;;;;;;4.80;4.40;;;;;;;;;;4980052;28;20208;-73
2023/06/30 00:09:38;;;;;;;6.17;4.83;;;;;;;;;;4964097;28;20186;-73
2023/06/30 00:12:03;;;;;;;5.73;5.17;;;;;;;;;;4962044;28;20187;-73
2023/06/30 00:14:28;;;;;;;5.43;4.93;;;;;;;;;;4956746;28;20176;-73
2023/06/30 00:16:56;;;;;;;5.13;4.57;;;;;;;;;;4956478;28;20183;-73
2023/06/30 00:19:23;;;;;;;5.80;5.03;;;;;;;;;;4983387;28;20223;-73
2023/06/30 00:21:52;;;;;;;5.97;5.13;;;;;;;;;;4966071;28;20178;-73
2023/06/30 00:24:18;;;;;;;5.30;4.80;;;;;;;;;;4961445;28;20230;-73
2023/06/30 00:26:43;;;;;;;7.43;5.87;;;;;;;;;;4962911;28;20187;-73
2023/06/30 00:29:08;;;;;;;5.30;4.53;;;;;;;;;;4964423;28;20179;-73
2023/06/30 00:31:33;;;;;;;5.23;4.73;;;;;;;;;;4968046;28;20194;-73
2023/06/30 00:33:58;;;;;;;6.10;5.00;;;;;;;;;;4961592;28;20288;-73
2023/06/30 00:36:24;;;;;;;6.50;4.93;;;;;;;;;;4983230;28;20193;-73
2023/06/30 00:38:51;;;;;;;5.53;5.00;;;;;;;;;;4965379;28;20175;-73
2023/06/30 00:41:16;;;;;;;7.17;5.03;;;;;;;;;;4961143;28;20224;-73
2023/06/30 00:43:41;;;;;;;6.30;4.80;;;;;;;;;;4977310;28;20233;-73
2023/06/30 00:46:09;;;;;;;5.73;4.87;;;;;;;;;;4964751;28;20179;-73
2023/06/30 00:48:34;;;;;;;9.20;4.90;;;;;;;;;;4976857;28;20209;-73
2023/06/30 00:50:59;;;;;;;6.87;5.30;;;;;;;;;;4968528;28;20207;-73
2023/06/30 00:53:25;;;;;;;5.60;4.70;;;;;;;;;;4962491;28;20231;-73
2023/06/30 00:55:50;;;;;;;6.40;5.00;;;;;;;;;;4982058;28;20242;-74
2023/06/30 00:58:15;;;;;;;8.60;5.20;;;;;;;;;;4983074;28;20234;-73
2023/06/30 01:00:41;;;;;;;5.70;4.73;;;;;;;;;;4968316;28;20190;-73
2023/06/30 01:03:19;;;;;;;5.63;4.97;;;;;;;;;;4974944;28;20198;-74
2023/06/30 01:05:53;;;;;;;6.37;5.30;;;;;;;;;;4983270;28;20194;-74
2023/06/30 01:08:38;;;;;;;5.70;5.17;;;;;;;;;;4995210;28;20273;-73
2023/06/30 01:11:04;;;;;;;7.30;5.10;;;;;;;;;;4975134;28;20278;-73
2023/06/30 01:13:31;;;;;;;5.80;5.20;;;;;;;;;;4985846;28;20336;-73
2023/06/30 01:15:56;;;;;;;6.03;5.00;;;;;;;;;;4968717;28;20265;-74
2023/06/30 01:18:22;;;;;;;6.90;4.70;;;;;;;;;;4962896;28;20250;-73
2023/06/30 01:20:48;;;;;;;4.93;4.43;;;;;;;;;;4966129;28;20190;-73
2023/06/30 01:23:25;;;;;;;4.90;4.50;;;;;;;;;;4971233;28;20178;-73
2023/06/30 01:25:51;;;;;;;5.93;5.20;;;;;;;;;;4954162;28;20241;-73
2023/06/30 01:28:17;;;;;;;4.80;4.40;;;;;;;;;;4961872;28;20189;-73
2023/06/30 01:30:42;;;;;;;6.50;4.73;;;;;;;;;;4976752;28;20269;-74
2023/06/30 01:33:07;;;;;;;6.93;4.47;;;;;;;;;;4978176;28;20325;-73
2023/06/30 01:35:33;;;;;;;8.60;4.93;;;;;;;;;;4959451;28;20228;-73
2023/06/30 01:37:59;;;;;;;5.50;4.90;;;;;;;;;;4976774;28;20185;-73
2023/06/30 01:40:25;;;;;;;8.10;5.43;;;;;;;;;;4966086;28;20188;-73
2023/06/30 01:42:52;;;;;;;6.60;5.00;;;;;;;;;;4966855;28;20184;-73
2023/06/30 01:45:17;;;;;;;6.80;4.43;;;;;;;;;;4958642;28;20188;-73
2023/06/30 01:47:43;;;;;;;5.50;4.83;;;;;;;;;;4980806;28;20178;-73
2023/06/30 01:50:09;;;;;;;5.97;5.00;;;;;;;;;;4991493;28;20243;-73
2023/06/30 01:52:34;;;;;;;6.30;5.00;;;;;;;;;;4977025;28;20271;-73
2023/06/30 01:54:59;;;;;;;5.60;4.97;;;;;;;;;;4983938;28;20260;-73
2023/06/30 01:57:24;;;;;;;5.20;4.70;;;;;;;;;;4984646;28;20283;-73
2023/06/30 01:59:49;;;;;;;5.60;5.07;;;;;;;;;;5004321;28;20278;-73
2023/06/30 02:02:15;;;;;;;7.47;5.23;;;;;;;;;;5006778;28;20239;-73
2023/06/30 02:04:40;;;;;;;8.97;4.63;;;;;;;;;;5009473;28;20270;-73
2023/06/30 02:07:05;;;;;;;5.83;5.03;;;;;;;;;;5007198;28;20243;-73
2023/06/30 02:09:30;;;;;;;5.53;4.70;;;;;;;;;;5008543;28;20188;-73
2023/06/30 02:11:56;;;;;;;5.40;4.77;;;;;;;;;;4984030;28;20252;-73
2023/06/30 02:14:21;;;;;;;6.53;5.00;;;;;;;;;;4980660;28;20232;-73
2023/06/30 02:16:46;;;;;;;5.63;5.13;;;;;;;;;;5006161;28;20186;-73
2023/06/30 02:19:11;;;;;;;9.20;5.10;;;;;;;;;;4986310;28;20171;-73
2023/06/30 02:21:36;;;;;;;5.33;4.90;;;;;;;;;;5008482;28;20203;-73
2023/06/30 02:24:02;;;;;;;8.13;4.80;;;;;;;;;;5010685;28;20187;-73
2023/06/30 02:26:27;;;;;;;6.20;4.57;;;;;;;;;;4988015;28;20183;-73
2023/06/30 02:28:52;;;;;;;5.53;4.67;;;;;;;;;;4990369;28;20183;-73
2023/06/30 02:31:17;;;;;;;5.37;4.60;;;;;;;;;;5001301;28;20447;-73
2023/06/30 02:33:44;;;;;;;5.63;4.43;;;;;;;;;;4984789;28;20330;-73
2023/06/30 02:36:09;;;;;;;7.63;4.73;;;;;;;;;;5003338;28;20266;-73
2023/06/30 02:38:34;;;;;;;5.80;5.13;;;;;;;;;;4996270;28;20178;-73
2023/06/30 02:40:59;;;;;;;7.43;4.70;;;;;;;;;;4992235;28;20182;-73
2023/06/30 02:43:25;;;;;;;5.33;4.83;;;;;;;;;;5007585;28;20190;-73
2023/06/30 02:45:50;;;;;;;7.30;4.77;;;;;;;;;;5004833;28;20183;-73
2023/06/30 02:48:17;;;;;;;5.87;4.50;;;;;;;;;;4983529;28;20286;-73
2023/06/30 02:50:43;;;;;;;6.50;4.73;;;;;;;;;;4995125;28;20240;-74
2023/06/30 02:53:08;;;;;;;4.93;4.40;;;;;;;;;;5006927;28;20227;-73
2023/06/30 02:55:34;;;;;;;4.63;4.23;;;;;;;;;;4978281;28;20183;-74
2023/06/30 02:57:59;;;;;;;5.87;4.90;;;;;;;;;;5002916;28;20294;-73
2023/06/30 03:00:24;;;;;;;5.87;4.43;;;;;;;;;;4981845;28;20193;-73
2023/06/30 03:02:50;;;;;;;4.83;4.43;;;;;;;;;;5000710;28;20179;-73
2023/06/30 03:05:15;;;;;;;4.93;4.53;;;;;;;;;;4978441;28;20253;-73
2023/06/30 03:07:40;;;;;;;5.27;4.77;;;;;;;;;;4983149;28;20270;-73
2023/06/30 03:10:06;;;;;;;4.27;3.87;;;;;;;;;;5008079;28;20180;-73
2023/06/30 03:12:31;;;;;;;4.83;4.40;;;;;;;;;;5005852;28;20198;-73
2023/06/30 03:14:56;;;;;;;5.10;4.60;;;;;;;;;;5006307;28;20183;-73
2023/06/30 03:17:21;;;;;;;6.13;4.90;;;;;;;;;;4978050;28;20184;-73
2023/06/30 03:19:47;;;;;;;5.00;4.50;;;;;;;;;;4987696;28;20183;-73
2023/06/30 03:22:12;;;;;;;6.17;4.33;;;;;;;;;;5000576;28;20286;-73
2023/06/30 03:24:38;;;;;;;4.73;4.30;;;;;;;;;;4989825;28;20211;-73
2023/06/30 03:27:03;;;;;;;9.83;4.47;;;;;;;;;;5005985;28;20177;-73
2023/06/30 03:29:28;;;;;;;6.00;5.37;;;;;;;;;;4987961;28;20172;-73
2023/06/30 03:31:54;;;;;;;6.00;4.13;;;;;;;;;;5005944;28;20266;-73
2023/06/30 03:34:19;;;;;;;5.90;4.27;;;;;;;;;;5004693;28;20407;-73
2023/06/30 03:36:44;;;;;;;13.63;4.97;;;;;;;;;;5004182;28;20213;-73
2023/06/30 03:39:09;;;;;;;7.93;5.03;;;;;;;;;;5004443;28;20176;-73
2023/06/30 03:41:35;;;;;;;6.87;5.03;;;;;;;;;;4995876;28;20198;-73
2023/06/30 03:44:00;;;;;;;6.77;5.37;;;;;;;;;;5010393;28;20186;-73
2023/06/30 03:46:25;;;;;;;6.60;5.63;;;;;;;;;;4990170;28;20239;-74
2023/06/30 03:48:50;;;;;;;7.57;5.80;;;;;;;;;;5003364;28;20264;-73
2023/06/30 03:51:15;;;;;;;7.17;6.33;;;;;;;;;;4986729;28;20213;-73
2023/06/30 03:53:41;;;;;;;7.27;6.20;;;;;;;;;;4998093;28;20333;-73
2023/06/30 03:56:07;;;;;;;7.77;6.17;;;;;;;;;;4991077;28;20439;-73
2023/06/30 03:58:32;;;;;;;7.30;5.67;;;;;;;;;;4981475;28;20180;-73
2023/06/30 04:00:57;;;;;;;7.50;5.73;;;;;;;;;;4978460;28;20184;-73
2023/06/30 04:03:22;;;;;;;7.93;6.00;;;;;;;;;;4991821;28;20184;-73
2023/06/30 04:05:48;;;;;;;7.67;6.17;;;;;;;;;;4987814;28;20191;-73
2023/06/30 04:08:13;;;;;;;6.23;5.63;;;;;;;;;;4998477;28;20275;-74
2023/06/30 04:10:38;;;;;;;6.67;5.97;;;;;;;;;;4987503;28;20183;-73
2023/06/30 04:13:06;;;;;;;8.87;6.57;;;;;;;;;;4990934;28;20204;-73
2023/06/30 04:15:32;;;;;;;8.37;6.20;;;;;;;;;;5005558;28;20207;-73
2023/06/30 04:17:57;;;;;;;8.17;6.23;;;;;;;;;;5012122;28;20212;-73
2023/06/30 04:20:22;;;;;;;7.40;6.40;;;;;;;;;;4988824;28;20206;-73
2023/06/30 04:22:47;;;;;;;8.10;6.60;;;;;;;;;;4981723;28;20185;-73
2023/06/30 04:25:13;;;;;;;7.23;6.53;;;;;;;;;;4998996;28;20174;-73
2023/06/30 04:27:38;;;;;;;7.87;6.27;;;;;;;;;;4998639;28;20181;-73
2023/06/30 04:30:04;;;;;;;9.63;6.37;;;;;;;;;;4997588;28;20210;-73
2023/06/30 04:32:29;;;;;;;7.77;6.17;;;;;;;;;;4992098;28;20258;-74
2023/06/30 04:34:58;;;;;;;6.13;5.53;;;;;;;;;;4990029;28;20243;-74
2023/06/30 04:37:23;;;;;;;9.30;6.20;;;;;;;;;;5005469;28;20268;-74
2023/06/30 04:39:50;;;;;;;10.13;6.43;;;;;;;;;;4992280;28;20307;-74
2023/06/30 04:42:15;;;;;;;6.87;5.67;;;;;;;;;;4980330;28;20227;-74
2023/06/30 04:44:40;;;;;;;10.03;6.80;;;;;;;;;;4985843;28;20200;-74
2023/06/30 04:47:06;;;;;;;7.77;6.53;;;;;;;;;;4991071;28;20198;-74
2023/06/30 04:49:31;;;;;;;15.10;6.90;;;;;;;;;;4985514;28;20200;-74
2023/06/30 04:51:56;;;;;;;7.30;6.60;;;;;;;;;;5002278;28;20222;-74
2023/06/30 04:54:22;;;;;;;9.60;6.33;;;;;;;;;;4996744;28;20246;-74
2023/06/30 04:56:47;;;;;;;27.40;7.93;;;;;;;;;;4985578;28;20194;-74
2023/06/30 04:59:12;;;;;;;8.40;6.67;;;;;;;;;;5004512;28;20183;-74
2023/06/30 05:01:38;;;;;;;9.17;7.20;;;;;;;;;;4984829;28;20182;-74
2023/06/30 05:04:03;;;;;;;8.37;7.03;;;;;;;;;;5005323;28;20185;-74
2023/06/30 05:06:28;;;;;;;6.67;6.07;;;;;;;;;;5004025;28;20219;-74
2023/06/30 05:08:53;;;;;;;10.03;6.43;;;;;;;;;;5005762;28;20365;-74
2023/06/30 05:11:18;;;;;;;10.07;7.23;;;;;;;;;;4977041;28;20183;-74
2023/06/30 05:13:44;;;;;;;10.90;8.13;;;;;;;;;;5000496;28;20199;-74
2023/06/30 05:16:11;;;;;;;11.07;8.03;;;;;;;;;;4986870;28;20180;-74
2023/06/30 05:18:36;;;;;;;11.67;8.20;;;;;;;;;;5007398;28;20270;-74
2023/06/30 05:21:01;;;;;;;18.90;9.77;;;;;;;;;;4998124;28;20344;-74
2023/06/30 05:23:27;;;;;;;10.50;7.87;;;;;;;;;;4986383;28;20180;-74
2023/06/30 05:25:52;;;;;;;13.00;8.10;;;;;;;;;;4984036;28;20235;-74
2023/06/30 05:28:17;;;;;;;34.87;10.83;;;;;;;;;;4984751;28;20188;-74
2023/06/30 05:30:43;;;;;;;16.90;9.03;;;;;;;;;;4981372;28;20262;-74
2023/06/30 05:33:08;;;;;;;15.00;9.20;;;;;;;;;;4996996;28;20258;-74
2023/06/30 05:35:33;;;;;;;10.10;8.63;;;;;;;;;;4982453;28;20175;-74
2023/06/30 05:37:59;;;;;;;19.83;9.87;;;;;;;;;;4985114;28;20272;-74
2023/06/30 05:40:25;;;;;;;10.50;9.43;;;;;;;;;;4985024;28;20186;-74
2023/06/30 05:42:50;;;;;;;10.53;7.97;;;;;;;;;;4985424;28;20253;-74
2023/06/30 05:45:15;;;;;;;17.57;9.87;;;;;;;;;;5003550;28;20268;-74
2023/06/30 05:47:40;;;;;;;14.93;9.67;;;;;;;;;;4981366;28;20188;-74
2023/06/30 05:50:06;;;;;;;69.67;15.97;;;;;;;;;;5002172;28;20201;-74
2023/06/30 05:52:31;;;;;;;15.60;9.13;;;;;;;;;;4986309;28;20254;-74
2023/06/30 05:54:56;;;;;;;13.20;10.13;;;;;;;;;;4982689;28;20176;-74
2023/06/30 05:57:22;;;;;;;13.13;9.40;;;;;;;;;;4982822;28;20395;-75
2023/06/30 05:59:47;;;;;;;12.23;10.83;;;;;;;;;;4982133;28;20191;-75
2023/06/30 06:02:12;;;;;;;12.83;9.67;;;;;;;;;;5001753;28;20208;-75
2023/06/30 06:04:37;;;;;;;17.33;11.83;;;;;;;;;;4999928;28;20188;-75
2023/06/30 06:07:05;;;;;;;13.43;11.23;;;;;;;;;;5012912;28;20178;-75
2023/06/30 06:09:30;;;;;;;14.00;11.23;;;;;;;;;;4977210;28;20184;-76
2023/06/30 06:11:55;;;;;;;11.80;10.00;;;;;;;;;;5002999;28;20176;-75
2023/06/30 06:14:21;;;;;;;13.77;10.33;;;;;;;;;;4981942;28;20264;-76
2023/06/30 06:16:46;;;;;;;13.07;10.87;;;;;;;;;;5004002;28;20208;-76
2023/06/30 06:19:12;;;;;;;12.83;10.73;;;;;;;;;;4984178;28;20187;-75
2023/06/30 06:21:37;;;;;;;12.30;10.03;;;;;;;;;;4991082;28;20231;-75
2023/06/30 06:24:03;;;;;;;10.53;9.43;;;;;;;;;;4982372;28;20185;-75
2023/06/30 06:26:28;;;;;;;10.93;9.83;;;;;;;;;;4988840;28;20254;-75
2023/06/30 06:28:53;;;;;;;11.73;10.27;;;;;;;;;;4982876;28;20186;-75
2023/06/30 06:31:18;;;;;;;13.13;11.23;;;;;;;;;;5003255;28;20182;-75
2023/06/30 06:33:43;;;;;;;15.07;10.57;;;;;;;;;;4985363;28;20323;-75
2023/06/30 06:36:09;;;;;;;13.00;9.77;;;;;;;;;;4994955;28;20212;-75
2023/06/30 06:38:35;;;;;;;11.87;10.57;;;;;;;;;;4985766;28;20182;-75
2023/06/30 06:41:01;;;;;;;15.50;10.97;;;;;;;;;;4991814;28;20192;-75
2023/06/30 06:43:27;;;;;;;14.33;11.77;;;;;;;;;;5000153;28;20185;-75
2023/06/30 06:45:52;;;;;;;13.37;10.00;;;;;;;;;;5001674;28;20188;-75
2023/06/30 06:48:22;;;;;;;11.87;10.17;;;;;;;;;;5002522;28;20193;-75
2023/06/30 06:50:51;;;;;;;16.80;11.27;;;;;;;;;;4981088;28;20248;-73
2023/06/30 06:53:21;;;;;;;12.13;11.03;;;;;;;;;;4966799;28;20290;-75
2023/06/30 06:55:47;;;;;;;10.73;9.63;;;;;;;;;;4981085;28;20186;-75
2023/06/30 06:58:12;;;;;;;11.63;9.97;;;;;;;;;;4961468;28;20165;-75
2023/06/30 07:00:37;;;;;;;12.93;11.50;;;;;;;;;;4963893;28;20181;-75
2023/06/30 07:03:03;;;;;;;13.37;11.37;;;;;;;;;;4960007;28;20307;-76
2023/06/30 07:05:28;;;;;;;12.30;11.00;;;;;;;;;;4965604;28;20284;-76
2023/06/30 07:07:53;;;;;;;12.63;11.00;;;;;;;;;;4965626;28;20205;-76
2023/06/30 07:10:18;;;;;;;14.80;13.20;;;;;;;;;;4966485;28;20278;-75
2023/06/30 07:12:43;;;;;;;16.03;13.80;;;;;;;;;;4967135;28;20224;-75
2023/06/30 07:15:09;;;;;;;18.20;14.07;;;;;;;;;;4973813;28;20180;-75
2023/06/30 07:17:34;;;;;;;18.23;14.60;;;;;;;;;;4960866;28;20230;-75
2023/06/30 07:20:00;;;;;;;18.50;15.03;;;;;;;;;;4982921;28;20177;-75
2023/06/30 07:22:25;;;;;;;19.43;14.57;;;;;;;;;;4962619;28;20183;-75
2023/06/30 07:24:50;;;;;;;18.47;15.03;;;;;;;;;;4982405;28;20177;-75
2023/06/30 07:27:15;;;;;;;21.03;15.43;;;;;;;;;;4982620;28;20176;-75
2023/06/30 07:29:41;;;;;;;17.10;15.30;;;;;;;;;;4963150;28;20178;-75
2023/06/30 07:32:06;;;;;;;17.97;15.10;;;;;;;;;;4963287;28;20173;-75
2023/06/30 07:34:33;;;;;;;16.73;13.87;;;;;;;;;;4963046;28;20210;-75
2023/06/30 07:36:59;;;;;;;18.17;14.17;;;;;;;;;;4980152;28;20257;-75
2023/06/30 07:39:24;;;;;;;15.70;14.10;;;;;;;;;;4977902;28;20183;-76
2023/06/30 07:41:51;;;;;;;18.73;14.53;;;;;;;;;;4963610;28;20242;-76
2023/06/30 07:44:16;;;;;;;18.27;15.17;;;;;;;;;;4965241;28;20184;-76
2023/06/30 07:46:41;;;;;;;20.33;15.57;;;;;;;;;;4958025;28;20205;-75
2023/06/30 07:49:06;;;;;;;18.67;15.77;;;;;;;;;;4967193;28;20181;-73
2023/06/30 07:51:32;;;;;;;18.23;14.80;;;;;;;;;;4977895;28;20211;-74
2023/06/30 07:53:57;;;;;;;17.73;14.43;;;;;;;;;;4999057;28;20257;-75
2023/06/30 07:56:22;;;;;;;14.57;12.50;;;;;;;;;;4996423;28;20179;-74
2023/06/30 07:58:48;;;;;;;18.07;12.40;;;;;;;;;;4982850;28;20218;-75
2023/06/30 08:01:13;;;;;;;12.27;10.70;;;;;;;;;;4989357;28;20211;-74
2023/06/30 08:03:39;;;;;;;13.27;11.03;;;;;;;;;;4985868;28;20183;-74
2023/06/30 08:06:04;;;;;;;11.37;10.23;;;;;;;;;;5005958;28;20191;-74
2023/06/30 08:08:30;;;;;;;10.13;8.47;;;;;;;;;;5006649;28;20183;-74
2023/06/30 08:10:55;;;;;;;9.77;7.67;;;;;;;;;;4986791;28;20202;-74
2023/06/30 08:13:20;;;;;;;8.30;7.50;;;;;;;;;;5006533;28;20221;-74
2023/06/30 08:15:45;;;;;;;8.73;7.87;;;;;;;;;;4996817;28;20188;-74
2023/06/30 08:18:11;;;;;;;7.70;6.90;;;;;;;;;;4987982;28;20183;-74
2023/06/30 08:20:36;;;;;;;8.87;7.50;;;;;;;;;;5002619;28;20186;-74
2023/06/30 08:23:01;;;;;;;7.60;6.90;;;;;;;;;;5010161;28;20197;-74
2023/06/30 08:25:27;;;;;;;9.10;6.97;;;;;;;;;;5007374;28;20226;-74
2023/06/30 08:27:52;;;;;;;7.73;6.73;;;;;;;;;;4985362;28;20174;-74
2023/06/30 08:30:17;;;;;;;7.90;6.73;;;;;;;;;;5002458;28;20182;-74
2023/06/30 08:32:43;;;;;;;7.97;7.17;;;;;;;;;;4996801;28;20245;-74
2023/06/30 08:35:08;;;;;;;8.97;7.43;;;;;;;;;;5001043;28;20409;-75
2023/06/30 08:37:34;;;;;;;8.00;7.03;;;;;;;;;;4981366;28;20258;-72
2023/06/30 08:40:00;;;;;;;9.77;7.70;;;;;;;;;;5008021;28;20193;-72
2023/06/30 08:42:27;;;;;;;9.07;7.33;;;;;;;;;;5010830;28;20182;-72
2023/06/30 08:44:53;;;;;;;10.13;9.13;;;;;;;;;;4999153;28;20179;-72
2023/06/30 08:47:20;;;;;;;12.00;10.07;;;;;;;;;;5003570;28;20176;-72
2023/06/30 08:49:47;;;;;;;12.53;10.70;;;;;;;;;;4997817;28;20237;-72
2023/06/30 08:52:14;;;;;;;13.30;11.83;;;;;;;;;;4987476;28;20264;-72
2023/06/30 08:54:39;;;;;;;14.07;12.23;;;;;;;;;;4987763;28;20178;-72
2023/06/30 08:57:05;;;;;;;17.13;13.47;;;;;;;;;;4997341;28;20173;-73
2023/06/30 08:59:31;;;;;;;17.17;13.97;;;;;;;;;;4980833;28;20187;-72
2023/06/30 09:01:57;;;;;;;15.03;13.43;;;;;;;;;;4986030;28;20201;-72
2023/06/30 09:04:22;;;;;;;16.93;13.63;;;;;;;;;;5003140;28;20188;-72
2023/06/30 09:06:48;;;;;;;16.33;13.00;;;;;;;;;;4983394;28;20179;-72
2023/06/30 09:09:21;;;;;;;14.27;12.77;;;;;;;;;;4980295;28;20185;-72
2023/06/30 09:11:47;;;;;;;21.20;13.00;;;;;;;;;;5003236;28;20232;-74
2023/06/30 09:14:13;;;;;;;15.93;13.77;;;;;;;;;;4977882;28;20227;-75
2023/06/30 09:16:38;;;;;;;16.13;13.77;;;;;;;;;;4981747;28;20187;-75
2023/06/30 09:19:04;;;;;;;15.23;13.73;;;;;;;;;;4981817;28;20189;-75
2023/06/30 09:21:29;;;;;;;13.90;12.17;;;;;;;;;;5003729;28;20224;-79
2023/06/30 09:23:54;;;;;;;15.80;13.63;;;;;;;;;;4985635;28;20206;-80
2023/06/30 09:26:19;;;;;;;16.13;14.43;;;;;;;;;;4985529;28;20197;-80
2023/06/30 09:28:45;;;;;;;16.80;15.00;;;;;;;;;;4985465;28;20265;-80
2023/06/30 09:31:11;;;;;;;17.30;15.40;;;;;;;;;;4985784;28;20198;-80
2023/06/30 09:33:36;;;;;;;17.60;15.27;;;;;;;;;;4996239;28;20294;-79
2023/06/30 09:36:05;;;;;;;16.40;14.70;;;;;;;;;;4985291;28;20179;-79
2023/06/30 09:38:30;;;;;;;18.37;16.37;;;;;;;;;;4987966;28;20191;-79
2023/06/30 09:40:56;;;;;;;20.23;16.97;;;;;;;;;;5000396;28;20259;-80
2023/06/30 09:43:22;;;;;;;19.13;16.97;;;;;;;;;;5000866;28;20188;-80
2023/06/30 09:45:54;;;;;;;22.20;17.70;;;;;;;;;;4983138;28;20191;-80
2023/06/30 09:48:27;;;;;;;21.33;16.60;;;;;;;;;;4996544;28;20193;-80
2023/06/30 09:50:53;;;;;;;22.77;18.27;;;;;;;;;;5001691;28;20212;-78
2023/06/30 09:53:19;;;;;;;22.10;17.73;;;;;;;;;;4973802;28;20236;-80
2023/06/30 09:55:48;;;;;;;20.97;17.50;;;;;;;;;;4972647;28;20187;-80
2023/06/30 09:58:14;;;;;;;20.50;18.30;;;;;;;;;;4965482;28;20188;-80
2023/06/30 10:00:40;;;;;;;19.70;17.40;;;;;;;;;;4978851;28;20179;-80
2023/06/30 10:03:05;;;;;;;18.97;16.93;;;;;;;;;;4973977;28;20190;-80
2023/06/30 10:05:31;;;;;;;22.03;17.37;;;;;;;;;;4972289;28;20179;-80
2023/06/30 10:07:57;;;;;;;19.37;16.50;;;;;;;;;;4966998;28;20176;-80
2023/06/30 10:10:23;;;;;;;20.40;18.30;;;;;;;;;;4987670;28;20187;-80
2023/06/30 10:12:49;;;;;;;21.70;17.17;;;;;;;;;;4983621;28;20210;-80
2023/06/30 10:15:15;;;;;;;19.67;16.93;;;;;;;;;;4963393;28;20274;-80
2023/06/30 10:17:43;;;;;;;19.17;16.60;;;;;;;;;;4959878;28;20266;-80
2023/06/30 10:20:08;;;;;;;20.57;18.37;;;;;;;;;;4977657;28;20197;-80
2023/06/30 10:22:34;;;;;;;18.67;15.40;;;;;;;;;;4983350;28;20187;-80
2023/06/30 10:24:59;;;;;;;19.33;17.23;;;;;;;;;;4964418;28;20170;-79
2023/06/30 10:27:25;;;;;;;19.87;17.37;;;;;;;;;;4976802;28;20244;-80
2023/06/30 10:29:50;;;;;;;19.50;17.20;;;;;;;;;;4974398;28;20179;-80
2023/06/30 10:32:20;;;;;;;23.83;18.93;;;;;;;;;;4962857;28;20181;-80
2023/06/30 10:34:45;;;;;;;20.97;18.27;;;;;;;;;;4982488;28;20194;-80
2023/06/30 10:37:10;;;;;;;21.57;17.77;;;;;;;;;;4965521;28;20226;-80
2023/06/30 10:39:36;;;;;;;21.47;18.07;;;;;;;;;;4965909;28;20187;-80
2023/06/30 10:42:04;;;;;;;20.40;18.23;;;;;;;;;;4979317;28;20191;-79
2023/06/30 10:44:43;;;;;;;24.23;18.83;;;;;;;;;;4980773;28;20242;-79
2023/06/30 10:47:08;;;;;;;23.70;19.80;;;;;;;;;;4980241;28;20184;-79
2023/06/30 10:49:38;;;;;;;25.23;20.13;;;;;;;;;;4983271;28;20260;-79
2023/06/30 10:52:06;;;;;;;25.40;20.03;;;;;;;;;;4960279;28;20215;-78
2023/06/30 10:54:39;;;;;;;21.77;19.27;;;;;;;;;;4960347;28;20238;-79
2023/06/30 10:57:05;;;;;;;23.27;19.23;;;;;;;;;;4958156;28;20213;-79
2023/06/30 10:59:38;;;;;;;25.67;21.27;;;;;;;;;;4961003;28;20197;-79
2023/06/30 11:02:18;;;;;;;26.77;20.63;;;;;;;;;;4965021;28;20201;-78
2023/06/30 11:04:45;;;;;;;25.13;19.97;;;;;;;;;;4984381;28;20228;-79
2023/06/30 11:07:11;;;;;;;24.40;19.93;;;;;;;;;;4960897;28;20171;-78
2023/06/30 11:09:48;;;;;;;22.30;19.43;;;;;;;;;;4980243;28;20180;-79
2023/06/30 11:12:19;;;;;;;25.37;19.73;;;;;;;;;;4978370;28;20187;-78
2023/06/30 11:14:55;;;;;;;24.10;19.53;;;;;;;;;;4989404;28;20191;-78
2023/06/30 11:17:20;;;;;;;22.33;18.30;;;;;;;;;;4963636;28;20238;-78
2023/06/30 11:20:18;;;;;;;22.93;18.70;;;;;;;;;;4963519;28;20214;-78
2023/06/30 11:22:57;;;;;;;23.30;19.43;;;;;;;;;;4926119;28;20262;-78
2023/06/30 11:25:26;;;;;;;23.57;19.90;;;;;;;;;;4971861;28;20205;-74
2023/06/30 11:27:51;;;;;;;24.17;19.90;;;;;;;;;;4957891;28;20178;-73
2023/06/30 11:30:18;;;;;;;25.60;20.30;;;;;;;;;;4964063;28;20201;-73
2023/06/30 11:32:44;;;;;;;23.57;20.07;;;;;;;;;;4974457;28;20209;-73
2023/06/30 11:35:11;;;;;;;21.10;18.70;;;;;;;;;;4974092;28;20231;-74
2023/06/30 11:37:36;;;;;;;21.30;18.50;;;;;;;;;;4966695;28;20187;-74
2023/06/30 11:40:02;;;;;;;22.87;19.20;;;;;;;;;;4966918;28;20182;-74
2023/06/30 11:42:28;;;;;;;21.43;18.77;;;;;;;;;;4983235;28;20176;-74
2023/06/30 11:44:53;;;;;;;22.60;19.17;;;;;;;;;;4968746;28;20205;-74
2023/06/30 11:47:19;;;;;;;21.27;18.13;;;;;;;;;;4987280;28;20264;-73
2023/06/30 11:49:47;;;;;;;23.80;19.80;;;;;;;;;;4987570;28;20195;-74
2023/06/30 11:52:16;;;;;;;25.33;20.07;;;;;;;;;;4989552;28;20234;-74
2023/06/30 11:54:41;;;;;;;22.13;19.23;;;;;;;;;;5003132;28;20227;-74
2023/06/30 11:57:07;;;;;;;24.53;18.77;;;;;;;;;;5002801;28;20225;-73
2023/06/30 11:59:33;;;;;;;26.80;20.23;;;;;;;;;;5005638;28;20187;-73
2023/06/30 12:02:00;;;;;;;25.23;19.73;;;;;;;;;;4988391;28;20191;-73
2023/06/30 12:04:32;;;;;;;24.00;19.80;;;;;;;;;;5008777;28;20247;-73
2023/06/30 12:06:58;;;;;;;22.80;20.30;;;;;;;;;;4987593;28;20276;-73
2023/06/30 12:09:23;;;;;;;27.57;21.03;;;;;;;;;;4997498;28;20275;-73
2023/06/30 12:11:48;;;;;;;24.50;19.77;;;;;;;;;;5003702;28;20264;-73
2023/06/30 12:14:15;;;;;;;27.27;19.67;;;;;;;;;;4998957;28;20207;-73
2023/06/30 12:16:51;;;;;;;27.93;20.73;;;;;;;;;;5003192;28;20171;-73
2023/06/30 12:19:18;;;;;;;21.87;19.30;;;;;;;;;;4981760;28;20199;-73
2023/06/30 12:21:50;;;;;;;23.37;19.63;;;;;;;;;;4988513;28;20173;-73
2023/06/30 12:24:19;;;;;;;23.20;19.80;;;;;;;;;;4991253;28;20200;-73
2023/06/30 12:26:44;;;;;;;21.53;18.30;;;;;;;;;;4996251;28;20195;-73
2023/06/30 12:29:10;;;;;;;23.40;19.70;;;;;;;;;;4999235;28;20172;-73
2023/06/30 12:31:35;;;;;;;23.03;18.90;;;;;;;;;;5000972;28;20185;-73
2023/06/30 12:34:00;;;;;;;26.03;20.83;;;;;;;;;;4983226;28;20235;-73
2023/06/30 12:36:29;;;;;;;24.23;19.50;;;;;;;;;;4979873;28;20260;-73
2023/06/30 12:38:55;;;;;;;20.90;18.00;;;;;;;;;;4988313;28;20284;-73
2023/06/30 12:41:20;;;;;;;22.43;18.40;;;;;;;;;;4999076;28;20269;-73
2023/06/30 12:43:45;;;;;;;29.67;19.83;;;;;;;;;;4986606;28;20217;-73
2023/06/30 12:46:11;;;;;;;23.37;18.97;;;;;;;;;;4983605;28;20182;-73
2023/06/30 12:48:36;;;;;;;25.37;20.70;;;;;;;;;;4992640;28;20194;-73
2023/06/30 12:51:01;;;;;;;25.20;19.97;;;;;;;;;;4987331;28;20193;-73
2023/06/30 12:53:26;;;;;;;22.77;20.37;;;;;;;;;;5003283;28;20303;-73
2023/06/30 12:55:51;;;;;;;23.87;17.57;;;;;;;;;;4983486;28;20191;-73
2023/06/30 12:58:17;;;;;;;20.87;16.07;;;;;;;;;;5003148;28;20185;-73
2023/06/30 13:00:42;;;;;;;22.97;19.23;;;;;;;;;;4980371;28;20182;-74
2023/06/30 13:03:10;;;;;;;26.73;21.57;;;;;;;;;;4990532;28;20183;-73
2023/06/30 13:05:35;;;;;;;25.13;21.10;;;;;;;;;;4996190;28;20240;-73
2023/06/30 13:08:00;;;;;;;24.10;20.20;;;;;;;;;;4987658;28;20191;-74
2023/06/30 13:10:26;;;;;;;24.53;19.53;;;;;;;;;;4999497;28;20276;-73
2023/06/30 13:12:51;;;;;;;21.63;19.23;;;;;;;;;;4989915;28;20202;-73
2023/06/30 13:15:16;;;;;;;23.40;18.83;;;;;;;;;;5001924;28;20191;-73
2023/06/30 13:17:42;;;;;;;22.47;17.30;;;;;;;;;;5004302;28;20182;-73
2023/06/30 13:20:07;;;;;;;23.77;19.63;;;;;;;;;;4990508;28;20177;-73
2023/06/30 13:22:33;;;;;;;23.43;20.93;;;;;;;;;;5003281;28;20178;-73
2023/06/30 13:24:58;;;;;;;19.77;14.60;;;;;;;;;;4997835;28;20182;-73
2023/06/30 13:27:23;;;;;;;24.83;20.07;;;;;;;;;;4986049;28;20180;-73
2023/06/30 13:29:49;;;;;;;25.87;16.63;;;;;;;;;;5003447;28;20276;-74
2023/06/30 13:32:16;;;;;;;24.70;17.77;;;;;;;;;;5000722;28;20168;-74
2023/06/30 13:34:42;;;;;;;22.13;18.13;;;;;;;;;;4997020;28;20240;-73
2023/06/30 13:37:07;;;;;;;18.77;15.77;;;;;;;;;;5003526;28;20241;-73
2023/06/30 13:39:32;;;;;;;20.73;17.47;;;;;;;;;;5002610;28;20179;-73
2023/06/30 13:41:57;;;;;;;20.80;14.93;;;;;;;;;;4976185;28;20187;-73
2023/06/30 13:44:23;;;;;;;19.23;17.23;;;;;;;;;;4996079;28;20202;-73
2023/06/30 13:46:48;;;;;;;16.43;14.60;;;;;;;;;;4984942;28;20184;-74
2023/06/30 13:49:14;;;;;;;19.73;15.53;;;;;;;;;;4999573;28;20184;-73
2023/06/30 13:51:39;;;;;;;21.63;16.53;;;;;;;;;;4979125;28;20185;-73
2023/06/30 13:54:04;;;;;;;19.40;16.83;;;;;;;;;;5001448;28;20284;-73
2023/06/30 13:56:30;;;;;;;20.73;16.70;;;;;;;;;;5000036;28;20183;-73
2023/06/30 13:58:55;;;;;;;20.73;16.37;;;;;;;;;;4990779;28;20173;-73
2023/06/30 14:01:21;;;;;;;21.33;16.40;;;;;;;;;;4998359;28;20243;-74
2023/06/30 14:03:50;;;;;;;22.17;16.97;;;;;;;;;;4982493;28;20185;-71
2023/06/30 14:06:16;;;;;;;19.63;16.40;;;;;;;;;;5002199;28;20174;-72
2023/06/30 14:08:41;;;;;;;18.83;14.97;;;;;;;;;;4980885;28;20181;-71
2023/06/30 14:11:06;;;;;;;17.17;15.30;;;;;;;;;;4985336;28;20185;-71
2023/06/30 14:13:31;;;;;;;16.70;14.90;;;;;;;;;;5002487;28;20213;-71
2023/06/30 14:15:57;;;;;;;15.90;14.20;;;;;;;;;;4995849;28;20245;-71
2023/06/30 14:18:22;;;;;;;18.93;16.17;;;;;;;;;;4977912;28;20194;-71
2023/06/30 14:20:47;;;;;;;17.93;15.60;;;;;;;;;;4983165;28;20243;-71
2023/06/30 14:23:13;;;;;;;16.83;14.43;;;;;;;;;;4985430;28;20213;-71